createdAt,value
2022-08-10T00:00:01.485Z,2
2022-08-10T00:05:01.953Z,0
2022-08-10T00:10:01.329Z,2
2022-08-10T00:15:01.712Z,0
2022-08-10T00:20:08.388Z,1
2022-08-10T00:25:02.190Z,2
2022-08-10T00:30:01.534Z,1
2022-08-10T00:35:01.875Z,1
2022-08-10T00:40:02.396Z,2
2022-08-10T00:45:01.923Z,1
2022-08-10T00:50:02.255Z,2
2022-08-10T00:55:01.643Z,2
2022-08-10T01:00:02.136Z,2
2022-08-10T01:05:02.497Z,1
2022-08-10T01:10:02.227Z,2
2022-08-10T01:15:01.585Z,1
2022-08-10T01:20:01.993Z,3
2022-08-10T01:25:01.345Z,2
2022-08-10T01:30:01.688Z,2
2022-08-10T01:35:02.065Z,2
2022-08-10T01:40:01.498Z,1
2022-08-10T01:45:01.852Z,1
2022-08-10T01:50:02.187Z,2
2022-08-10T01:55:01.543Z,2
2022-08-10T02:00:02.554Z,1
2022-08-10T02:05:01.419Z,2
2022-08-10T02:10:01.819Z,1
2022-08-10T02:15:02.157Z,1
2022-08-10T02:20:01.605Z,2
2022-08-10T02:25:01.936Z,0
2022-08-10T02:30:02.281Z,1
2022-08-10T02:35:01.646Z,2
2022-08-10T02:40:01.310Z,2
2022-08-10T02:45:19.854Z,1
2022-08-10T02:50:02.020Z,2
2022-08-10T02:55:04.682Z,3
2022-08-10T03:00:02.156Z,1
2022-08-10T03:05:01.531Z,2
2022-08-10T03:10:01.929Z,2
2022-08-10T03:15:01.949Z,2
2022-08-10T03:20:35.845Z,3
2022-08-10T03:25:01.933Z,1
2022-08-10T03:30:27.422Z,2
2022-08-10T03:35:01.486Z,2
2022-08-10T03:40:01.881Z,2
2022-08-10T03:45:02.305Z,0
2022-08-10T03:50:03.575Z,2
2022-08-10T03:55:01.660Z,2
2022-08-10T04:00:02.015Z,1
2022-08-10T04:05:01.634Z,2
2022-08-10T04:10:02.014Z,1
2022-08-10T04:15:01.576Z,1
2022-08-10T04:20:02.007Z,2
2022-08-10T04:25:01.500Z,2
2022-08-10T04:30:02.238Z,3
2022-08-10T04:35:01.582Z,2
2022-08-10T04:40:01.972Z,3
2022-08-10T04:45:01.327Z,2
2022-08-10T04:50:02.389Z,3
2022-08-10T04:55:01.850Z,2
2022-08-10T05:00:02.236Z,2
2022-08-10T05:05:01.843Z,1
2022-08-10T05:10:06.574Z,2
2022-08-10T05:15:01.830Z,2
2022-08-10T05:20:06.058Z,2
2022-08-10T05:25:01.506Z,2
2022-08-10T05:30:03.079Z,2
2022-08-10T05:35:02.153Z,2
2022-08-10T05:40:01.638Z,1
2022-08-10T05:45:02.023Z,2
2022-08-10T05:50:01.358Z,2
2022-08-10T05:55:03.021Z,3
2022-08-10T06:00:33.442Z,2
2022-08-10T06:05:02.121Z,1
2022-08-10T06:10:01.550Z,2
2022-08-10T06:15:05.133Z,2
2022-08-10T06:20:01.940Z,2
2022-08-10T06:25:37.765Z,3
2022-08-10T06:30:01.745Z,2
2022-08-10T06:35:02.092Z,2
2022-08-10T06:40:01.536Z,3
2022-08-10T06:45:01.945Z,1
2022-08-10T06:50:05.019Z,1
2022-08-10T06:55:05.478Z,2
2022-08-10T07:00:02.644Z,2
2022-08-10T07:05:02.124Z,4
2022-08-10T07:10:01.530Z,2
2022-08-10T07:15:01.906Z,1
2022-08-10T07:20:01.453Z,2
2022-08-10T07:25:01.729Z,2
2022-08-10T07:30:01.442Z,3
2022-08-10T07:35:01.917Z,2
2022-08-10T07:40:03.365Z,2
2022-08-10T07:45:01.917Z,2
2022-08-10T07:50:02.259Z,2
2022-08-10T07:55:01.622Z,2
2022-08-10T08:00:01.974Z,3
2022-08-10T08:05:01.831Z,3
2022-08-10T08:10:02.226Z,2
2022-08-10T08:15:01.575Z,3
2022-08-10T08:20:02.741Z,2
2022-08-10T08:25:01.410Z,2
2022-08-10T08:30:01.891Z,2
2022-08-10T08:35:02.364Z,2
2022-08-10T08:40:01.874Z,2
2022-08-10T08:45:02.346Z,3
2022-08-10T08:50:07.929Z,3
2022-08-10T08:55:01.775Z,1
2022-08-10T09:00:02.144Z,3
2022-08-10T09:05:01.613Z,3
2022-08-10T09:10:02.010Z,2
2022-08-10T09:15:01.355Z,2
2022-08-10T09:20:01.781Z,3
2022-08-10T09:25:02.129Z,3
2022-08-10T09:30:01.485Z,4
2022-08-10T09:36:22.105Z,3
2022-08-10T09:40:12.753Z,2
2022-08-10T09:45:01.754Z,3
2022-08-10T09:50:04.679Z,3
2022-08-10T09:55:01.640Z,3
2022-08-10T10:00:02.969Z,4
2022-08-10T10:05:01.535Z,2
2022-08-10T10:10:01.936Z,4
2022-08-10T10:15:02.306Z,4
2022-08-10T10:20:01.510Z,3
2022-08-10T10:25:01.980Z,3
2022-08-10T10:30:01.576Z,4
2022-08-10T10:35:01.935Z,4
2022-08-10T10:40:01.507Z,3
2022-08-10T10:45:01.926Z,3
2022-08-10T10:50:02.269Z,4
2022-08-10T10:55:01.689Z,3
2022-08-10T11:00:02.140Z,4
2022-08-10T11:05:01.514Z,3
2022-08-10T11:10:09.169Z,3
2022-08-10T11:15:01.842Z,4
2022-08-10T11:20:04.189Z,3
2022-08-10T11:25:01.803Z,2
2022-08-10T11:30:02.169Z,2
2022-08-10T11:35:10.273Z,3
2022-08-10T11:40:01.867Z,3
2022-08-10T11:45:01.319Z,4
2022-08-10T11:50:01.667Z,3
2022-08-10T11:55:02.116Z,2
2022-08-10T12:00:01.563Z,2
2022-08-10T12:05:01.909Z,3
2022-08-10T12:10:12.504Z,4
2022-08-10T12:15:01.699Z,4
2022-08-10T12:20:03.895Z,4
2022-08-10T12:25:01.477Z,3
2022-08-10T12:30:02.060Z,5
2022-08-10T12:35:01.465Z,2
2022-08-10T12:40:33.476Z,4
2022-08-10T12:45:02.270Z,4
2022-08-10T12:50:23.925Z,4
2022-08-10T12:55:01.993Z,2
2022-08-10T13:00:01.349Z,5
2022-08-10T13:05:01.698Z,4
2022-08-10T13:10:02.092Z,3
2022-08-10T13:15:01.461Z,3
2022-08-10T13:20:12.958Z,2
2022-08-10T13:25:01.289Z,3
2022-08-10T13:30:03.665Z,3
2022-08-10T13:35:01.430Z,5
2022-08-10T13:40:01.966Z,3
2022-08-10T13:45:01.566Z,3
2022-08-10T13:50:01.990Z,3
2022-08-10T13:55:02.168Z,4
2022-08-10T14:00:34.813Z,5
2022-08-10T14:05:01.577Z,5
2022-08-10T14:10:02.109Z,4
2022-08-10T14:15:02.203Z,3
2022-08-10T14:20:02.459Z,4
2022-08-10T14:25:01.937Z,4
2022-08-10T14:30:01.502Z,3
2022-08-10T14:36:20.080Z,4
2022-08-10T14:40:02.019Z,3
2022-08-10T14:45:02.261Z,5
2022-08-10T14:50:01.620Z,4
2022-08-10T14:55:01.722Z,3
2022-08-10T15:00:24.816Z,5
2022-08-10T15:05:01.458Z,4
2022-08-10T15:10:04.450Z,4
2022-08-10T15:15:02.090Z,4
2022-08-10T15:20:13.641Z,4
2022-08-10T15:25:01.998Z,4
2022-08-10T15:30:01.380Z,4
2022-08-10T15:35:01.716Z,5
2022-08-10T15:40:23.770Z,4
2022-08-10T15:45:02.217Z,4
2022-08-10T15:50:01.655Z,3
2022-08-10T15:55:02.087Z,4
2022-08-10T16:00:02.302Z,4
2022-08-10T16:05:01.653Z,5
2022-08-10T16:10:23.483Z,5
2022-08-10T16:15:01.435Z,3
2022-08-10T16:20:01.884Z,4
2022-08-10T16:25:02.346Z,4
2022-08-10T16:30:01.685Z,3
2022-08-10T16:35:02.154Z,3
2022-08-10T16:40:01.702Z,3
2022-08-10T16:45:02.312Z,6
2022-08-10T16:50:01.775Z,4
2022-08-10T16:55:05.550Z,3
2022-08-10T17:00:01.557Z,4
2022-08-10T17:05:01.908Z,4
2022-08-10T17:10:02.294Z,4
2022-08-10T17:15:09.752Z,5
2022-08-10T17:20:30.514Z,3
2022-08-10T17:25:01.916Z,4
2022-08-10T17:30:03.492Z,3
2022-08-10T17:35:01.497Z,4
2022-08-10T17:40:01.912Z,4
2022-08-10T17:45:02.258Z,4
2022-08-10T17:50:01.724Z,3
2022-08-10T17:55:02.084Z,6
2022-08-10T18:00:01.459Z,5
2022-08-10T18:05:01.811Z,4
2022-08-10T18:10:02.196Z,3
2022-08-10T18:15:01.580Z,4
2022-08-10T18:20:02.009Z,4
2022-08-10T18:25:01.372Z,6
2022-08-10T18:30:01.792Z,5
2022-08-10T18:35:02.145Z,5
2022-08-10T18:40:01.521Z,3
2022-08-10T18:45:01.889Z,5
2022-08-10T18:50:02.258Z,4
2022-08-10T18:55:01.602Z,4
2022-08-10T19:00:07.923Z,5
2022-08-10T19:05:01.894Z,6
2022-08-10T19:10:02.292Z,6
2022-08-10T19:15:01.652Z,5
2022-08-10T19:20:02.083Z,5
2022-08-10T19:25:01.467Z,4
2022-08-10T19:30:11.027Z,3
2022-08-10T19:35:01.909Z,3
2022-08-10T19:40:02.494Z,4
2022-08-10T19:45:02.238Z,5
2022-08-10T19:50:01.612Z,3
2022-08-10T19:55:01.959Z,5
2022-08-10T20:00:16.599Z,4
2022-08-10T20:05:02.279Z,3
2022-08-10T20:10:01.683Z,3
2022-08-10T20:15:02.156Z,4
2022-08-10T20:20:01.566Z,5
2022-08-10T20:25:02.037Z,2
2022-08-10T20:30:01.398Z,4
2022-08-10T20:35:01.859Z,4
2022-08-10T20:40:02.258Z,4
2022-08-10T20:45:01.614Z,6
2022-08-10T20:50:01.974Z,4
2022-08-10T20:55:01.396Z,3
2022-08-10T21:00:02.373Z,5
2022-08-10T21:05:01.749Z,5
2022-08-10T21:10:02.202Z,6
2022-08-10T21:15:01.597Z,4
2022-08-10T21:20:01.914Z,6
2022-08-10T21:25:01.614Z,5
2022-08-10T21:30:08.510Z,6
2022-08-10T21:35:01.961Z,5
2022-08-10T21:40:01.475Z,7
2022-08-10T21:45:04.462Z,4
2022-08-10T21:50:07.198Z,4
2022-08-10T21:55:02.194Z,6
2022-08-10T22:00:01.674Z,5
2022-08-10T22:05:01.769Z,4
2022-08-10T22:10:02.178Z,7
2022-08-10T22:15:01.477Z,4
2022-08-10T22:20:01.751Z,5
2022-08-10T22:25:02.121Z,6
2022-08-10T22:30:02.091Z,5
2022-08-10T22:35:01.447Z,5
2022-08-10T22:40:11.596Z,6
2022-08-10T22:45:01.652Z,4
2022-08-10T22:50:07.676Z,6
2022-08-10T22:55:01.496Z,3
2022-08-10T23:00:01.889Z,5
2022-08-10T23:05:02.219Z,7
2022-08-10T23:10:01.605Z,5
2022-08-10T23:15:01.963Z,6
2022-08-10T23:20:01.513Z,5
2022-08-10T23:25:01.984Z,6
2022-08-10T23:30:10.152Z,6
2022-08-10T23:40:01.793Z,6
2022-08-10T23:45:02.211Z,5
2022-08-10T23:50:01.575Z,5
2022-08-10T23:55:01.921Z,5
